F/vphalene — FHLG — position and weather

sailwx.info

Track history (hours):
 
Tides and Currents Weather Stations Pressure Air Temp Water Temp Dewpoint Dewpoint Depression Visibility Wind Speed Wind Dir Waves Ship Positions

F/vphalene

Last reported at 2017-Sep-21 16:56 UTC. Time now 2017-Sep-22 20:53 UTC.
Position N 47°43' W 003°21'.

Length 14 m; draft 4 m.

Type: Fishing. MMSI: 228313000.

Date/timePositionNaut miles runAvg speedWind from/ knotsBaromVisibWave heightAir tempDewpointWater temp
2017-Sep-21 16:56N 47°43' W 003°21'1 2.2
2017-Sep-21 16:28N 47°44' W 003°22'0 0.2
2017-Sep-21 15:57N 47°44' W 003°22'0 0.0
2017-Sep-21 15:29N 47°44' W 003°22'2 3.8
2017-Sep-21 15:01N 47°42' W 003°22'4 8.9
2017-Sep-21 14:31N 47°40' W 003°28'5 9.3
2017-Sep-21 14:01N 47°39' W 003°35'5 9.2
2017-Sep-21 13:31N 47°37' W 003°42'4 8.9
2017-Sep-21 13:00N 47°36' W 003°48'7 8.8
2017-Sep-21 12:14N 47°34' W 003°57'4 7.9
2017-Sep-21 11:45N 47°33' W 004°03'1 2.3
2017-Sep-21 11:18N 47°32' W 004°03'14 1.8
2017-Sep-21 03:26N 47°36' W 003°44'4 7.9
2017-Sep-21 02:58N 47°38' W 003°39'4 7.7
2017-Sep-21 02:30N 47°39' W 003°34'4 7.6
2017-Sep-21 02:00N 47°40' W 003°28'4 7.9
2017-Sep-21 01:30N 47°42' W 003°23'2 4.0
2017-Sep-21 00:56N 47°44' W 003°22'2 5.2
2017-Sep-21 00:30N 47°42' W 003°22'5 9.1
2017-Sep-21 00:00N 47°37' W 003°23'4 8.5
2017-Sep-20 23:30N 47°34' W 003°28'4 8.0
2017-Sep-20 23:00N 47°33' W 003°34'2 3.3
2017-Sep-20 22:30N 47°32' W 003°36'2 3.9
2017-Sep-20 22:00N 47°30' W 003°38'2 3.9
2017-Sep-20 21:30N 47°29' W 003°39'2 3.6
2017-Sep-20 21:00N 47°27' W 003°41'2 3.5
2017-Sep-20 20:30N 47°27' W 003°44'2 3.4
2017-Sep-20 20:00N 47°26' W 003°46'2 3.6
2017-Sep-20 19:30N 47°26' W 003°49'2 3.9
2017-Sep-20 18:59N 47°27' W 003°52'2 3.1
2017-Sep-20 18:23N 47°27' W 003°54'3 3.7
2017-Sep-20 17:37N 47°28' W 003°58'1 3.8
2017-Sep-20 17:28N 47°28' W 003°59'6 2.5
2017-Sep-20 15:12N 47°33' W 004°04'1 3.8
2017-Sep-20 14:59N 47°32' W 004°03'3 2.6
2017-Sep-20 13:58N 47°30' W 004°06'3 1.3
2017-Sep-20 11:36N 47°33' W 004°04'0 4.1
2017-Sep-20 11:30N 47°33' W 004°03'3 3.7
2017-Sep-20 10:46N 47°30' W 004°04'7 3.5
2017-Sep-20 08:40N 47°37' W 004°07'1 2.3
2017-Sep-20 08:23N 47°37' W 004°08'1 3.6
2017-Sep-20 07:59N 47°37' W 004°10'1 2.5
2017-Sep-20 07:27N 47°36' W 004°12'2 3.7
2017-Sep-20 07:00N 47°36' W 004°10'6 4.0
2017-Sep-20 05:32N 47°33' W 004°02'0 3.9
2017-Sep-20 05:26N 47°33' W 004°01'2 4.1
2017-Sep-20 04:55N 47°32' W 003°58'6 6.7
2017-Sep-20 03:58N 47°35' W 003°49'4 7.9
2017-Sep-20 03:30N 47°36' W 003°44'4 8.1
2017-Sep-20 02:59N 47°38' W 003°39'4 8.4
2017-Sep-20 02:30N 47°39' W 003°33'4 8.1
2017-Sep-20 02:00N 47°40' W 003°28'4 8.0
2017-Sep-20 01:30N 47°42' W 003°22'2 3.0
2017-Sep-20 00:58N 47°44' W 003°22'4 7.8
2017-Sep-20 00:30N 47°40' W 003°23'5 9.1
2017-Sep-20 00:00N 47°36' W 003°24'4 8.5
2017-Sep-19 23:30N 47°34' W 003°30'3 6.9
2017-Sep-19 23:00N 47°32' W 003°34'2 3.9
2017-Sep-19 22:30N 47°31' W 003°37'2 4.1
2017-Sep-19 22:00N 47°30' W 003°39'2 4.1
2017-Sep-19 21:30N 47°28' W 003°40'2 3.8
2017-Sep-19 21:00N 47°27' W 003°43'2 3.7
2017-Sep-19 20:30N 47°26' W 003°45'2 3.5
2017-Sep-19 20:00N 47°26' W 003°48'2 3.7
2017-Sep-19 19:30N 47°26' W 003°50'1 2.7
2017-Sep-19 19:00N 47°26' W 003°53'2 3.8
2017-Sep-19 18:30N 47°28' W 003°55'2 3.8
2017-Sep-19 17:58N 47°29' W 003°57'2 3.8
2017-Sep-19 17:21N 47°30' W 004°00'2 4.0
2017-Sep-19 16:51N 47°31' W 004°03'8 0.8
2017-Sep-19 07:33N 47°37' W 004°10'18 4.4
2017-Sep-19 03:34N 47°36' W 003°44'1 8.6
2017-Sep-19 03:29N 47°36' W 003°43'4 8.5
2017-Sep-19 02:59N 47°38' W 003°37'4 8.4
2017-Sep-19 02:30N 47°40' W 003°32'4 8.4
2017-Sep-19 02:00N 47°41' W 003°26'4 7.1
2017-Sep-19 01:30N 47°43' W 003°21'0 0.2
2017-Sep-19 00:59N 47°43' W 003°21'0 0.0
2017-Sep-19 00:28N 47°43' W 003°21'0 0.0
2017-Sep-18 23:58N 47°43' W 003°21'1 2.2
2017-Sep-18 23:30N 47°44' W 003°22'0 0.2
2017-Sep-18 23:00N 47°44' W 003°22'0 0.2
2017-Sep-18 22:30N 47°44' W 003°22'1 1.4
2017-Sep-18 22:00N 47°43' W 003°22'4 8.2
2017-Sep-18 21:30N 47°41' W 003°27'4 8.6
2017-Sep-18 21:00N 47°40' W 003°33'4 8.5
2017-Sep-18 20:30N 47°38' W 003°39'4 8.2
2017-Sep-18 20:00N 47°36' W 003°44'2 4.9
2017-Sep-18 19:30N 47°34' W 003°47'2 3.8
2017-Sep-18 19:00N 47°33' W 003°48'2 3.6
2017-Sep-18 18:30N 47°31' W 003°50'2 3.6
2017-Sep-18 18:00N 47°31' W 003°52'2 3.7
2017-Sep-18 17:31N 47°31' W 003°55'2 3.7
2017-Sep-18 17:00N 47°32' W 003°58'2 3.8
2017-Sep-18 16:30N 47°32' W 004°00'2 3.9
2017-Sep-18 16:00N 47°31' W 004°03'1 1.8
2017-Sep-18 15:24N 47°31' W 004°05'1 3.2
2017-Sep-18 14:58N 47°30' W 004°04'2 0.6
2017-Sep-18 11:35N 47°32' W 004°02'0 0.5
2017-Sep-18 11:27N 47°31' W 004°02'2 3.7
2017-Sep-18 10:58N 47°31' W 003°60'2 3.8
2017-Sep-18 10:31N 47°30' W 003°57'1 2.5
2017-Sep-18 09:57N 47°31' W 003°55'2 3.7
2017-Sep-18 09:24N 47°32' W 003°57'2 3.8
2017-Sep-18 08:59N 47°33' W 003°59'1 1.1
2017-Sep-18 08:17N 47°32' W 003°58'1 4.0
2017-Sep-18 07:57N 47°32' W 003°56'2 4.0
2017-Sep-18 07:30N 47°32' W 003°54'1 2.7
2017-Sep-18 07:00N 47°30' W 003°54'2 3.4
2017-Sep-18 06:26N 47°30' W 003°57'1 3.2
2017-Sep-18 06:00N 47°31' W 003°55'2 4.0
2017-Sep-18 05:22N 47°31' W 003°51'2 4.1
2017-Sep-18 04:58N 47°32' W 003°49'2 3.1
2017-Sep-18 04:28N 47°32' W 003°47'0 0.4
2017-Sep-18 03:58N 47°32' W 003°47'6 4.8
2017-Sep-18 02:41N 47°36' W 003°40'2 6.0
2017-Sep-18 02:18N 47°37' W 003°37'2 5.8
2017-Sep-18 02:00N 47°38' W 003°35'3 6.7
2017-Sep-18 01:30N 47°40' W 003°31'4 8.2
2017-Sep-18 01:00N 47°41' W 003°25'4 7.0
2017-Sep-18 00:30N 47°44' W 003°22'0 0.1
2017-Sep-17 23:58N 47°44' W 003°22'0 0.3
2017-Sep-17 23:30N 47°44' W 003°22'4 8.1
2017-Sep-17 23:00N 47°41' W 003°26'5 9.0
2017-Sep-17 22:30N 47°40' W 003°32'4 8.7
2017-Sep-17 22:00N 47°39' W 003°39'4 8.7
2017-Sep-17 21:30N 47°38' W 003°45'15 7.5
2017-Sep-17 19:33N 47°37' W 004°07'6 3.6
2017-Sep-17 17:54N 47°34' W 003°60'2 3.8
2017-Sep-17 17:27N 47°33' W 003°58'1 2.7
2017-Sep-17 17:00N 47°32' W 003°59'5 0.6
2017-Sep-17 09:23N 47°32' W 003°52'3 3.9
2017-Sep-17 08:41N 47°29' W 003°54'1 3.1
2017-Sep-17 08:13N 47°30' W 003°56'3 0.1
2017-Sep-16 14:37N 47°32' W 003°53'0 3.7
2017-Sep-16 14:29N 47°31' W 003°52'1 2.9
2017-Sep-16 14:00N 47°30' W 003°54'2 1.7
2017-Sep-16 13:06N 47°31' W 003°56'3 3.4
2017-Sep-16 12:13N 47°31' W 003°51'1 2.5
2017-Sep-16 11:59N 47°31' W 003°52'2 3.7
2017-Sep-16 11:30N 47°29' W 003°53'2 1.7
2017-Sep-16 10:12N 47°31' W 003°52'3 2.5
2017-Sep-16 09:00N 47°30' W 003°56'3 2.9
2017-Sep-16 07:58N 47°31' W 003°52'3 1.1
2017-Sep-16 05:11N 47°32' W 003°48'1 4.2
2017-Sep-16 05:00N 47°32' W 003°49'2 3.2
2017-Sep-16 04:30N 47°31' W 003°51'2 3.8
2017-Sep-16 03:59N 47°32' W 003°54'2 3.9
2017-Sep-16 03:25N 47°32' W 003°57'2 2.8
2017-Sep-16 02:51N 47°31' W 003°58'13 4.6
2017-Sep-16 00:03N 47°36' W 003°40'4 8.7
2017-Sep-15 23:38N 47°38' W 003°36'2 8.5
2017-Sep-15 23:25N 47°39' W 003°34'4 8.5
2017-Sep-15 23:00N 47°40' W 003°29'4 8.3
2017-Sep-15 22:30N 47°41' W 003°23'2 3.4
2017-Sep-15 21:58N 47°43' W 003°21'1 2.5
2017-Sep-15 21:29N 47°44' W 003°22'0 0.4
2017-Sep-15 20:59N 47°44' W 003°22'2 3.7
2017-Sep-15 20:30N 47°42' W 003°22'4 8.8
2017-Sep-15 20:00N 47°40' W 003°28'4 8.7
2017-Sep-15 19:30N 47°39' W 003°34'4 8.5
2017-Sep-15 19:01N 47°37' W 003°40'1 2.7
2017-Sep-15 18:30N 47°36' W 003°41'2 3.8
2017-Sep-15 18:00N 47°34' W 003°42'2 3.5
2017-Sep-15 17:31N 47°33' W 003°45'2 3.7
2017-Sep-15 17:00N 47°32' W 003°47'2 3.7
2017-Sep-15 16:30N 47°31' W 003°49'2 3.7
2017-Sep-15 15:59N 47°31' W 003°52'1 1.1
2017-Sep-15 15:13N 47°31' W 003°52'1 3.9
2017-Sep-15 14:57N 47°32' W 003°54'1 0.4
2017-Sep-15 12:39N 47°31' W 003°52'2 4.1
2017-Sep-15 12:16N 47°32' W 003°54'1 0.6
2017-Sep-15 10:05N 47°32' W 003°52'0 4.0
2017-Sep-15 09:58N 47°32' W 003°53'2 4.1
2017-Sep-15 09:30N 47°32' W 003°56'2 1.2
2017-Sep-15 07:38N 47°32' W 003°52'1 3.7
2017-Sep-15 07:28N 47°32' W 003°53'2 3.9
2017-Sep-15 07:01N 47°32' W 003°56'4 1.9
2017-Sep-15 04:57N 47°31' W 003°50'0 0.9
2017-Sep-15 04:30N 47°32' W 003°50'2 3.7
2017-Sep-15 03:59N 47°32' W 003°53'2 3.7
2017-Sep-15 03:30N 47°32' W 003°56'1 1.0
2017-Sep-15 02:17N 47°31' W 003°55'1 3.8
2017-Sep-15 01:59N 47°31' W 003°53'3 3.9
2017-Sep-15 01:19N 47°31' W 003°50'11 6.9
2017-Sep-14 23:41N 47°38' W 003°36'2 8.6
2017-Sep-14 23:28N 47°39' W 003°34'4 8.4
2017-Sep-14 23:01N 47°40' W 003°28'4 8.3
2017-Sep-14 22:31N 47°42' W 003°23'1 2.4
2017-Sep-14 21:58N 47°43' W 003°21'0 0.6
2017-Sep-14 21:31N 47°43' W 003°22'0 0.8
2017-Sep-14 21:01N 47°43' W 003°22'4 7.9
2017-Sep-14 20:31N 47°41' W 003°27'5 9.2
2017-Sep-14 20:00N 47°42' W 003°34'2 4.0
2017-Sep-14 19:30N 47°42' W 003°36'6 3.7
2017-Sep-14 17:59N 47°38' W 003°43'1 2.5
2017-Sep-14 17:30N 47°37' W 003°43'1 2.6
2017-Sep-14 17:00N 47°38' W 003°43'2 3.7
2017-Sep-14 16:30N 47°37' W 003°45'2 4.0
2017-Sep-14 16:00N 47°36' W 003°47'1 1.4
2017-Sep-14 15:28N 47°36' W 003°48'2 3.3
2017-Sep-14 14:57N 47°37' W 003°47'1 3.3
2017-Sep-14 14:30N 47°38' W 003°48'2 3.5
2017-Sep-14 14:00N 47°37' W 003°49'2 3.1
2017-Sep-14 13:29N 47°36' W 003°47'2 3.6
2017-Sep-14 13:00N 47°38' W 003°47'1 3.0
2017-Sep-14 12:30N 47°38' W 003°49'2 3.8
2017-Sep-14 11:59N 47°36' W 003°49'0 0.3
2017-Sep-14 11:20N 47°36' W 003°49'2 3.5
2017-Sep-14 10:53N 47°37' W 003°47'1 3.6
2017-Sep-14 10:29N 47°38' W 003°47'1 2.9
2017-Sep-14 09:59N 47°38' W 003°49'2 3.5
2017-Sep-14 09:29N 47°36' W 003°49'3 3.1
2017-Sep-14 08:35N 47°38' W 003°46'0 3.9
2017-Sep-14 08:30N 47°39' W 003°46'0 0.5
2017-Sep-14 07:52N 47°39' W 003°47'1 3.7
2017-Sep-14 07:30N 47°38' W 003°45'2 2.9
2017-Sep-14 06:47N 47°38' W 003°42'1 3.8
2017-Sep-14 06:29N 47°38' W 003°43'2 3.6
2017-Sep-14 06:00N 47°37' W 003°45'1 2.2
2017-Sep-14 05:30N 47°38' W 003°45'2 3.4
2017-Sep-14 05:00N 47°38' W 003°43'1 2.7
2017-Sep-14 04:28N 47°38' W 003°40'3 7.0
2017-Sep-14 04:00N 47°39' W 003°36'4 7.2
2017-Sep-14 03:30N 47°40' W 003°31'4 7.5
2017-Sep-14 03:00N 47°41' W 003°25'3 6.7
2017-Sep-14 02:30N 47°43' W 003°21'0 0.0
2017-Sep-12 21:07N 47°43' W 003°21'0 1.6
2017-Sep-12 21:00N 47°43' W 003°22'0 0.8
2017-Sep-12 20:30N 47°43' W 003°22'4 7.8
2017-Sep-12 20:00N 47°41' W 003°26'4 8.8
2017-Sep-12 19:30N 47°40' W 003°33'4 8.8
2017-Sep-12 19:01N 47°39' W 003°39'2 4.2
2017-Sep-12 18:30N 47°39' W 003°42'1 1.2
2017-Sep-12 17:35N 47°38' W 003°42'0 3.8
2017-Sep-12 17:30N 47°38' W 003°42'3 3.3
2017-Sep-12 16:38N 47°38' W 003°46'1 4.0
2017-Sep-12 16:26N 47°37' W 003°47'2 4.0
2017-Sep-12 16:00N 47°35' W 003°47'1 1.6
2017-Sep-12 15:30N 47°35' W 003°48'3 1.9
2017-Sep-12 14:09N 47°37' W 003°46'1 3.7
2017-Sep-12 14:00N 47°36' W 003°46'2 3.9
2017-Sep-12 13:30N 47°35' W 003°47'2 2.6
2017-Sep-12 12:38N 47°37' W 003°49'2 4.1
2017-Sep-12 12:07N 47°38' W 003°46'0 2.2
2017-Sep-12 11:58N 47°38' W 003°46'2 3.5
2017-Sep-12 11:30N 47°36' W 003°46'2 3.8
2017-Sep-12 11:00N 47°35' W 003°49'2 1.8
2017-Sep-12 09:54N 47°37' W 003°48'1 3.4
2017-Sep-12 09:30N 47°35' W 003°47'2 2.4
2017-Sep-12 08:43N 47°36' W 003°50'1 2.2
2017-Sep-12 08:12N 47°37' W 003°48'1 3.5
2017-Sep-12 08:00N 47°36' W 003°47'2 3.8
2017-Sep-12 07:30N 47°34' W 003°46'2 3.4
2017-Sep-12 07:00N 47°34' W 003°49'4 3.5
2017-Sep-12 05:58N 47°38' W 003°48'2 3.5
2017-Sep-12 05:27N 47°38' W 003°45'2 3.6
2017-Sep-12 05:00N 47°38' W 003°43'2 3.9
2017-Sep-12 04:30N 47°38' W 003°40'3 5.0
2017-Sep-12 04:00N 47°39' W 003°36'4 7.6
2017-Sep-12 03:30N 47°40' W 003°31'4 7.4
2017-Sep-12 03:00N 47°41' W 003°26'3 6.9
2017-Sep-12 02:30N 47°43' W 003°22'  
Track history (hours):
 
Tides and Currents Weather Stations Pressure Air Temp Water Temp Dewpoint Dewpoint Depression Visibility Wind Speed Wind Dir Waves Ship Positions

F/vphalene

Last reported at 2017-Sep-21 16:56 UTC. Time now 2017-Sep-22 20:53 UTC.
Position N 47°43' W 003°21'.

Length 14 m; draft 4 m.

Type: Fishing. MMSI: 228313000.

Date/timePositionNaut miles runAvg speedWind from/ knotsBaromVisibWave heightAir tempDewpointWater temp
2017-Sep-21 16:56N 47°43' W 003°21'1 2.2
2017-Sep-21 16:28N 47°44' W 003°22'0 0.2
2017-Sep-21 15:57N 47°44' W 003°22'0 0.0
2017-Sep-21 15:29N 47°44' W 003°22'2 3.8
2017-Sep-21 15:01N 47°42' W 003°22'4 8.9
2017-Sep-21 14:31N 47°40' W 003°28'5 9.3
2017-Sep-21 14:01N 47°39' W 003°35'5 9.2
2017-Sep-21 13:31N 47°37' W 003°42'4 8.9
2017-Sep-21 13:00N 47°36' W 003°48'7 8.8
2017-Sep-21 12:14N 47°34' W 003°57'4 7.9
2017-Sep-21 11:45N 47°33' W 004°03'1 2.3
2017-Sep-21 11:18N 47°32' W 004°03'14 1.8
2017-Sep-21 03:26N 47°36' W 003°44'4 7.9
2017-Sep-21 02:58N 47°38' W 003°39'4 7.7
2017-Sep-21 02:30N 47°39' W 003°34'4 7.6
2017-Sep-21 02:00N 47°40' W 003°28'4 7.9
2017-Sep-21 01:30N 47°42' W 003°23'2 4.0
2017-Sep-21 00:56N 47°44' W 003°22'2 5.2
2017-Sep-21 00:30N 47°42' W 003°22'5 9.1
2017-Sep-21 00:00N 47°37' W 003°23'4 8.5
2017-Sep-20 23:30N 47°34' W 003°28'4 8.0
2017-Sep-20 23:00N 47°33' W 003°34'2 3.3
2017-Sep-20 22:30N 47°32' W 003°36'2 3.9
2017-Sep-20 22:00N 47°30' W 003°38'2 3.9
2017-Sep-20 21:30N 47°29' W 003°39'2 3.6
2017-Sep-20 21:00N 47°27' W 003°41'2 3.5
2017-Sep-20 20:30N 47°27' W 003°44'2 3.4
2017-Sep-20 20:00N 47°26' W 003°46'2 3.6
2017-Sep-20 19:30N 47°26' W 003°49'2 3.9
2017-Sep-20 18:59N 47°27' W 003°52'2 3.1
2017-Sep-20 18:23N 47°27' W 003°54'3 3.7
2017-Sep-20 17:37N 47°28' W 003°58'1 3.8
2017-Sep-20 17:28N 47°28' W 003°59'6 2.5
2017-Sep-20 15:12N 47°33' W 004°04'1 3.8
2017-Sep-20 14:59N 47°32' W 004°03'3 2.6
2017-Sep-20 13:58N 47°30' W 004°06'3 1.3
2017-Sep-20 11:36N 47°33' W 004°04'0 4.1
2017-Sep-20 11:30N 47°33' W 004°03'3 3.7
2017-Sep-20 10:46N 47°30' W 004°04'7 3.5
2017-Sep-20 08:40N 47°37' W 004°07'1 2.3
2017-Sep-20 08:23N 47°37' W 004°08'1 3.6
2017-Sep-20 07:59N 47°37' W 004°10'1 2.5
2017-Sep-20 07:27N 47°36' W 004°12'2 3.7
2017-Sep-20 07:00N 47°36' W 004°10'6 4.0
2017-Sep-20 05:32N 47°33' W 004°02'0 3.9
2017-Sep-20 05:26N 47°33' W 004°01'2 4.1
2017-Sep-20 04:55N 47°32' W 003°58'6 6.7
2017-Sep-20 03:58N 47°35' W 003°49'4 7.9
2017-Sep-20 03:30N 47°36' W 003°44'4 8.1
2017-Sep-20 02:59N 47°38' W 003°39'4 8.4
2017-Sep-20 02:30N 47°39' W 003°33'4 8.1
2017-Sep-20 02:00N 47°40' W 003°28'4 8.0
2017-Sep-20 01:30N 47°42' W 003°22'2 3.0
2017-Sep-20 00:58N 47°44' W 003°22'4 7.8
2017-Sep-20 00:30N 47°40' W 003°23'5 9.1
2017-Sep-20 00:00N 47°36' W 003°24'4 8.5
2017-Sep-19 23:30N 47°34' W 003°30'3 6.9
2017-Sep-19 23:00N 47°32' W 003°34'2 3.9
2017-Sep-19 22:30N 47°31' W 003°37'2 4.1
2017-Sep-19 22:00N 47°30' W 003°39'2 4.1
2017-Sep-19 21:30N 47°28' W 003°40'2 3.8
2017-Sep-19 21:00N 47°27' W 003°43'2 3.7
2017-Sep-19 20:30N 47°26' W 003°45'2 3.5
2017-Sep-19 20:00N 47°26' W 003°48'2 3.7
2017-Sep-19 19:30N 47°26' W 003°50'1 2.7
2017-Sep-19 19:00N 47°26' W 003°53'2 3.8
2017-Sep-19 18:30N 47°28' W 003°55'2 3.8
2017-Sep-19 17:58N 47°29' W 003°57'2 3.8
2017-Sep-19 17:21N 47°30' W 004°00'2 4.0
2017-Sep-19 16:51N 47°31' W 004°03'8 0.8
2017-Sep-19 07:33N 47°37' W 004°10'18 4.4
2017-Sep-19 03:34N 47°36' W 003°44'1 8.6
2017-Sep-19 03:29N 47°36' W 003°43'4 8.5
2017-Sep-19 02:59N 47°38' W 003°37'4 8.4
2017-Sep-19 02:30N 47°40' W 003°32'4 8.4
2017-Sep-19 02:00N 47°41' W 003°26'4 7.1
2017-Sep-19 01:30N 47°43' W 003°21'0 0.2
2017-Sep-19 00:59N 47°43' W 003°21'0 0.0
2017-Sep-19 00:28N 47°43' W 003°21'0 0.0
2017-Sep-18 23:58N 47°43' W 003°21'1 2.2
2017-Sep-18 23:30N 47°44' W 003°22'0 0.2
2017-Sep-18 23:00N 47°44' W 003°22'0 0.2
2017-Sep-18 22:30N 47°44' W 003°22'1 1.4
2017-Sep-18 22:00N 47°43' W 003°22'4 8.2
2017-Sep-18 21:30N 47°41' W 003°27'4 8.6
2017-Sep-18 21:00N 47°40' W 003°33'4 8.5
2017-Sep-18 20:30N 47°38' W 003°39'4 8.2
2017-Sep-18 20:00N 47°36' W 003°44'2 4.9
2017-Sep-18 19:30N 47°34' W 003°47'2 3.8
2017-Sep-18 19:00N 47°33' W 003°48'2 3.6
2017-Sep-18 18:30N 47°31' W 003°50'2 3.6
2017-Sep-18 18:00N 47°31' W 003°52'2 3.7
2017-Sep-18 17:31N 47°31' W 003°55'2 3.7
2017-Sep-18 17:00N 47°32' W 003°58'2 3.8
2017-Sep-18 16:30N 47°32' W 004°00'2 3.9
2017-Sep-18 16:00N 47°31' W 004°03'1 1.8
2017-Sep-18 15:24N 47°31' W 004°05'1 3.2
2017-Sep-18 14:58N 47°30' W 004°04'2 0.6
2017-Sep-18 11:35N 47°32' W 004°02'0 0.5
2017-Sep-18 11:27N 47°31' W 004°02'2 3.7
2017-Sep-18 10:58N 47°31' W 003°60'2 3.8
2017-Sep-18 10:31N 47°30' W 003°57'1 2.5
2017-Sep-18 09:57N 47°31' W 003°55'2 3.7
2017-Sep-18 09:24N 47°32' W 003°57'2 3.8
2017-Sep-18 08:59N 47°33' W 003°59'1 1.1
2017-Sep-18 08:17N 47°32' W 003°58'1 4.0
2017-Sep-18 07:57N 47°32' W 003°56'2 4.0
2017-Sep-18 07:30N 47°32' W 003°54'1 2.7
2017-Sep-18 07:00N 47°30' W 003°54'2 3.4
2017-Sep-18 06:26N 47°30' W 003°57'1 3.2
2017-Sep-18 06:00N 47°31' W 003°55'2 4.0
2017-Sep-18 05:22N 47°31' W 003°51'2 4.1
2017-Sep-18 04:58N 47°32' W 003°49'2 3.1
2017-Sep-18 04:28N 47°32' W 003°47'0 0.4
2017-Sep-18 03:58N 47°32' W 003°47'6 4.8
2017-Sep-18 02:41N 47°36' W 003°40'2 6.0
2017-Sep-18 02:18N 47°37' W 003°37'2 5.8
2017-Sep-18 02:00N 47°38' W 003°35'3 6.7
2017-Sep-18 01:30N 47°40' W 003°31'4 8.2
2017-Sep-18 01:00N 47°41' W 003°25'4 7.0
2017-Sep-18 00:30N 47°44' W 003°22'0 0.1
2017-Sep-17 23:58N 47°44' W 003°22'0 0.3
2017-Sep-17 23:30N 47°44' W 003°22'4 8.1
2017-Sep-17 23:00N 47°41' W 003°26'5 9.0
2017-Sep-17 22:30N 47°40' W 003°32'4 8.7
2017-Sep-17 22:00N 47°39' W 003°39'4 8.7
2017-Sep-17 21:30N 47°38' W 003°45'15 7.5
2017-Sep-17 19:33N 47°37' W 004°07'6 3.6
2017-Sep-17 17:54N 47°34' W 003°60'2 3.8
2017-Sep-17 17:27N 47°33' W 003°58'1 2.7
2017-Sep-17 17:00N 47°32' W 003°59'5 0.6
2017-Sep-17 09:23N 47°32' W 003°52'3 3.9
2017-Sep-17 08:41N 47°29' W 003°54'1 3.1
2017-Sep-17 08:13N 47°30' W 003°56'3 0.1
2017-Sep-16 14:37N 47°32' W 003°53'0 3.7
2017-Sep-16 14:29N 47°31' W 003°52'1 2.9
2017-Sep-16 14:00N 47°30' W 003°54'2 1.7
2017-Sep-16 13:06N 47°31' W 003°56'3 3.4
2017-Sep-16 12:13N 47°31' W 003°51'1 2.5
2017-Sep-16 11:59N 47°31' W 003°52'2 3.7
2017-Sep-16 11:30N 47°29' W 003°53'2 1.7
2017-Sep-16 10:12N 47°31' W 003°52'3 2.5
2017-Sep-16 09:00N 47°30' W 003°56'3 2.9
2017-Sep-16 07:58N 47°31' W 003°52'3 1.1
2017-Sep-16 05:11N 47°32' W 003°48'1 4.2
2017-Sep-16 05:00N 47°32' W 003°49'2 3.2
2017-Sep-16 04:30N 47°31' W 003°51'2 3.8
2017-Sep-16 03:59N 47°32' W 003°54'2 3.9
2017-Sep-16 03:25N 47°32' W 003°57'2 2.8
2017-Sep-16 02:51N 47°31' W 003°58'13 4.6
2017-Sep-16 00:03N 47°36' W 003°40'4 8.7
2017-Sep-15 23:38N 47°38' W 003°36'2 8.5
2017-Sep-15 23:25N 47°39' W 003°34'4 8.5
2017-Sep-15 23:00N 47°40' W 003°29'4 8.3
2017-Sep-15 22:30N 47°41' W 003°23'2 3.4
2017-Sep-15 21:58N 47°43' W 003°21'1 2.5
2017-Sep-15 21:29N 47°44' W 003°22'0 0.4
2017-Sep-15 20:59N 47°44' W 003°22'2 3.7
2017-Sep-15 20:30N 47°42' W 003°22'4 8.8
2017-Sep-15 20:00N 47°40' W 003°28'4 8.7
2017-Sep-15 19:30N 47°39' W 003°34'4 8.5
2017-Sep-15 19:01N 47°37' W 003°40'1 2.7
2017-Sep-15 18:30N 47°36' W 003°41'2 3.8
2017-Sep-15 18:00N 47°34' W 003°42'2 3.5
2017-Sep-15 17:31N 47°33' W 003°45'2 3.7
2017-Sep-15 17:00N 47°32' W 003°47'2 3.7
2017-Sep-15 16:30N 47°31' W 003°49'2 3.7
2017-Sep-15 15:59N 47°31' W 003°52'1 1.1
2017-Sep-15 15:13N 47°31' W 003°52'1 3.9
2017-Sep-15 14:57N 47°32' W 003°54'1 0.4
2017-Sep-15 12:39N 47°31' W 003°52'2 4.1
2017-Sep-15 12:16N 47°32' W 003°54'1 0.6
2017-Sep-15 10:05N 47°32' W 003°52'0 4.0
2017-Sep-15 09:58N 47°32' W 003°53'2 4.1
2017-Sep-15 09:30N 47°32' W 003°56'2 1.2
2017-Sep-15 07:38N 47°32' W 003°52'1 3.7
2017-Sep-15 07:28N 47°32' W 003°53'2 3.9
2017-Sep-15 07:01N 47°32' W 003°56'4 1.9
2017-Sep-15 04:57N 47°31' W 003°50'0 0.9
2017-Sep-15 04:30N 47°32' W 003°50'2 3.7
2017-Sep-15 03:59N 47°32' W 003°53'2 3.7
2017-Sep-15 03:30N 47°32' W 003°56'1 1.0
2017-Sep-15 02:17N 47°31' W 003°55'1 3.8
2017-Sep-15 01:59N 47°31' W 003°53'3 3.9
2017-Sep-15 01:19N 47°31' W 003°50'11 6.9
2017-Sep-14 23:41N 47°38' W 003°36'2 8.6
2017-Sep-14 23:28N 47°39' W 003°34'4 8.4
2017-Sep-14 23:01N 47°40' W 003°28'4 8.3
2017-Sep-14 22:31N 47°42' W 003°23'1 2.4
2017-Sep-14 21:58N 47°43' W 003°21'0 0.6
2017-Sep-14 21:31N 47°43' W 003°22'0 0.8
2017-Sep-14 21:01N 47°43' W 003°22'4 7.9
2017-Sep-14 20:31N 47°41' W 003°27'5 9.2
2017-Sep-14 20:00N 47°42' W 003°34'2 4.0
2017-Sep-14 19:30N 47°42' W 003°36'6 3.7
2017-Sep-14 17:59N 47°38' W 003°43'1 2.5
2017-Sep-14 17:30N 47°37' W 003°43'1 2.6
2017-Sep-14 17:00N 47°38' W 003°43'2 3.7
2017-Sep-14 16:30N 47°37' W 003°45'2 4.0
2017-Sep-14 16:00N 47°36' W 003°47'1 1.4
2017-Sep-14 15:28N 47°36' W 003°48'2 3.3
2017-Sep-14 14:57N 47°37' W 003°47'1 3.3
2017-Sep-14 14:30N 47°38' W 003°48'2 3.5
2017-Sep-14 14:00N 47°37' W 003°49'2 3.1
2017-Sep-14 13:29N 47°36' W 003°47'2 3.6
2017-Sep-14 13:00N 47°38' W 003°47'1 3.0
2017-Sep-14 12:30N 47°38' W 003°49'2 3.8
2017-Sep-14 11:59N 47°36' W 003°49'0 0.3
2017-Sep-14 11:20N 47°36' W 003°49'2 3.5
2017-Sep-14 10:53N 47°37' W 003°47'1 3.6
2017-Sep-14 10:29N 47°38' W 003°47'1 2.9
2017-Sep-14 09:59N 47°38' W 003°49'2 3.5
2017-Sep-14 09:29N 47°36' W 003°49'3 3.1
2017-Sep-14 08:35N 47°38' W 003°46'0 3.9
2017-Sep-14 08:30N 47°39' W 003°46'0 0.5
2017-Sep-14 07:52N 47°39' W 003°47'1 3.7
2017-Sep-14 07:30N 47°38' W 003°45'2 2.9
2017-Sep-14 06:47N 47°38' W 003°42'1 3.8
2017-Sep-14 06:29N 47°38' W 003°43'2 3.6
2017-Sep-14 06:00N 47°37' W 003°45'1 2.2
2017-Sep-14 05:30N 47°38' W 003°45'2 3.4
2017-Sep-14 05:00N 47°38' W 003°43'1 2.7
2017-Sep-14 04:28N 47°38' W 003°40'3 7.0
2017-Sep-14 04:00N 47°39' W 003°36'4 7.2
2017-Sep-14 03:30N 47°40' W 003°31'4 7.5
2017-Sep-14 03:00N 47°41' W 003°25'3 6.7
2017-Sep-14 02:30N 47°43' W 003°21'0 0.0
2017-Sep-12 21:07N 47°43' W 003°21'0 1.6
2017-Sep-12 21:00N 47°43' W 003°22'0 0.8
2017-Sep-12 20:30N 47°43' W 003°22'4 7.8
2017-Sep-12 20:00N 47°41' W 003°26'4 8.8
2017-Sep-12 19:30N 47°40' W 003°33'4 8.8
2017-Sep-12 19:01N 47°39' W 003°39'2 4.2
2017-Sep-12 18:30N 47°39' W 003°42'1 1.2
2017-Sep-12 17:35N 47°38' W 003°42'0 3.8
2017-Sep-12 17:30N 47°38' W 003°42'3 3.3
2017-Sep-12 16:38N 47°38' W 003°46'1 4.0
2017-Sep-12 16:26N 47°37' W 003°47'2 4.0
2017-Sep-12 16:00N 47°35' W 003°47'1 1.6
2017-Sep-12 15:30N 47°35' W 003°48'3 1.9
2017-Sep-12 14:09N 47°37' W 003°46'1 3.7
2017-Sep-12 14:00N 47°36' W 003°46'2 3.9
2017-Sep-12 13:30N 47°35' W 003°47'2 2.6
2017-Sep-12 12:38N 47°37' W 003°49'2 4.1
2017-Sep-12 12:07N 47°38' W 003°46'0 2.2
2017-Sep-12 11:58N 47°38' W 003°46'2 3.5
2017-Sep-12 11:30N 47°36' W 003°46'2 3.8
2017-Sep-12 11:00N 47°35' W 003°49'2 1.8
2017-Sep-12 09:54N 47°37' W 003°48'1 3.4
2017-Sep-12 09:30N 47°35' W 003°47'2 2.4
2017-Sep-12 08:43N 47°36' W 003°50'1 2.2
2017-Sep-12 08:12N 47°37' W 003°48'1 3.5
2017-Sep-12 08:00N 47°36' W 003°47'2 3.8
2017-Sep-12 07:30N 47°34' W 003°46'2 3.4
2017-Sep-12 07:00N 47°34' W 003°49'4 3.5
2017-Sep-12 05:58N 47°38' W 003°48'2 3.5
2017-Sep-12 05:27N 47°38' W 003°45'2 3.6
2017-Sep-12 05:00N 47°38' W 003°43'2 3.9
2017-Sep-12 04:30N 47°38' W 003°40'3 5.0
2017-Sep-12 04:00N 47°39' W 003°36'4 7.6
2017-Sep-12 03:30N 47°40' W 003°31'4 7.4
2017-Sep-12 03:00N 47°41' W 003°26'3 6.9
2017-Sep-12 02:30N 47°43' W 003°22'  

Dump ship's entire track history